sensor_id;sensor_type;location;lat;lon;timestamp;pressure;altitude;pressure_sealevel;temperature;humidity
37776;BME280;23614;33.774;130.514;2023-05-09T00:02:21;101079.93;;;19.68;21.73
37776;BME280;23614;33.774;130.514;2023-05-09T00:04:47;101082.89;;;19.80;22.24
37776;BME280;23614;33.774;130.514;2023-05-09T00:07:13;101087.10;;;20.38;22.20
37776;BME280;23614;33.774;130.514;2023-05-09T00:09:39;101088.20;;;20.47;19.70
37776;BME280;23614;33.774;130.514;2023-05-09T00:12:05;101088.69;;;20.54;20.61
37776;BME280;23614;33.774;130.514;2023-05-09T00:14:31;101084.37;;;20.95;20.57
37776;BME280;23614;33.774;130.514;2023-05-09T00:16:57;101081.74;;;20.59;18.23
37776;BME280;23614;33.774;130.514;2023-05-09T00:19:23;101083.83;;;20.60;19.13
37776;BME280;23614;33.774;130.514;2023-05-09T00:21:49;101078.16;;;20.89;18.19
37776;BME280;23614;33.774;130.514;2023-05-09T00:24:15;101073.76;;;20.98;18.42
37776;BME280;23614;33.774;130.514;2023-05-09T00:26:41;101075.94;;;21.08;19.06
37776;BME280;23614;33.774;130.514;2023-05-09T00:29:07;101068.78;;;21.34;19.46
37776;BME280;23614;33.774;130.514;2023-05-09T00:31:33;101066.33;;;21.68;18.70
37776;BME280;23614;33.774;130.514;2023-05-09T00:33:59;101064.72;;;21.68;18.78
37776;BME280;23614;33.774;130.514;2023-05-09T00:36:25;101065.03;;;21.46;18.43
37776;BME280;23614;33.774;130.514;2023-05-09T00:38:51;101060.74;;;21.91;18.66
37776;BME280;23614;33.774;130.514;2023-05-09T00:41:17;101058.65;;;21.62;18.56
37776;BME280;23614;33.774;130.514;2023-05-09T00:43:43;101064.68;;;21.79;18.63
37776;BME280;23614;33.774;130.514;2023-05-09T00:46:09;101062.13;;;21.51;18.81
37776;BME280;23614;33.774;130.514;2023-05-09T00:48:35;101065.19;;;21.88;19.79
37776;BME280;23614;33.774;130.514;2023-05-09T00:51:01;101066.16;;;21.73;19.78
37776;BME280;23614;33.774;130.514;2023-05-09T00:53:27;101066.73;;;22.19;18.93
37776;BME280;23614;33.774;130.514;2023-05-09T00:55:53;101064.95;;;22.01;20.26
37776;BME280;23614;33.774;130.514;2023-05-09T00:58:19;101059.97;;;22.30;19.39
37776;BME280;23614;33.774;130.514;2023-05-09T01:00:45;101057.90;;;22.70;18.53
37776;BME280;23614;33.774;130.514;2023-05-09T01:03:11;101051.80;;;22.85;20.64
37776;BME280;23614;33.774;130.514;2023-05-09T01:05:42;101048.97;;;23.10;18.65
37776;BME280;23614;33.774;130.514;2023-05-09T01:08:08;101039.89;;;23.19;18.51
37776;BME280;23614;33.774;130.514;2023-05-09T01:10:34;101036.85;;;23.49;18.90
37776;BME280;23614;33.774;130.514;2023-05-09T01:13:01;101029.30;;;23.10;18.83
37776;BME280;23614;33.774;130.514;2023-05-09T01:15:25;101029.70;;;23.53;18.74
37776;BME280;23614;33.774;130.514;2023-05-09T01:17:52;101027.89;;;23.26;19.21
37776;BME280;23614;33.774;130.514;2023-05-09T01:20:19;101025.28;;;23.54;18.13
37776;BME280;23614;33.774;130.514;2023-05-09T01:22:41;101021.01;;;23.61;17.24
37776;BME280;23614;33.774;130.514;2023-05-09T01:25:40;101018.04;;;23.47;18.26
37776;BME280;23614;33.774;130.514;2023-05-09T01:27:38;101013.91;;;24.16;17.66
37776;BME280;23614;33.774;130.514;2023-05-09T01:29:58;101007.76;;;23.65;17.57
37776;BME280;23614;33.774;130.514;2023-05-09T01:32:25;101002.80;;;23.80;16.70
37776;BME280;23614;33.774;130.514;2023-05-09T01:34:50;100998.98;;;23.70;18.06
37776;BME280;23614;33.774;130.514;2023-05-09T01:37:16;100999.10;;;23.85;16.86
37776;BME280;23614;33.774;130.514;2023-05-09T01:39:41;101000.22;;;23.86;16.95
37776;BME280;23614;33.774;130.514;2023-05-09T01:42:08;100988.98;;;24.10;17.09
37776;BME280;23614;33.774;130.514;2023-05-09T01:44:37;100984.26;;;24.53;16.44
37776;BME280;23614;33.774;130.514;2023-05-09T01:46:59;100975.49;;;24.86;17.00
37776;BME280;23614;33.774;130.514;2023-05-09T01:49:24;100973.88;;;24.54;14.09
37776;BME280;23614;33.774;130.514;2023-05-09T01:51:50;100966.01;;;24.07;13.86
37776;BME280;23614;33.774;130.514;2023-05-09T01:54:17;100967.71;;;24.63;13.68
37776;BME280;23614;33.774;130.514;2023-05-09T01:56:42;100964.99;;;24.74;14.15
37776;BME280;23614;33.774;130.514;2023-05-09T01:59:08;100954.12;;;24.19;14.35
37776;BME280;23614;33.774;130.514;2023-05-09T02:01:34;100947.50;;;24.53;13.94
37776;BME280;23614;33.774;130.514;2023-05-09T02:04:00;100947.93;;;24.61;14.88
37776;BME280;23614;33.774;130.514;2023-05-09T02:06:26;100949.74;;;24.55;13.84
37776;BME280;23614;33.774;130.514;2023-05-09T02:08:52;100949.62;;;24.12;14.50
37776;BME280;23614;33.774;130.514;2023-05-09T02:11:18;100955.49;;;24.32;14.43
37776;BME280;23614;33.774;130.514;2023-05-09T02:13:44;100966.59;;;24.35;14.59
37776;BME280;23614;33.774;130.514;2023-05-09T02:16:10;100973.70;;;24.58;14.27
37776;BME280;23614;33.774;130.514;2023-05-09T02:18:36;100974.55;;;24.85;14.13
37776;BME280;23614;33.774;130.514;2023-05-09T02:21:03;100966.96;;;25.05;15.65
37776;BME280;23614;33.774;130.514;2023-05-09T02:23:28;100975.09;;;25.09;15.08
37776;BME280;23614;33.774;130.514;2023-05-09T02:25:54;100978.72;;;24.15;13.95
37776;BME280;23614;33.774;130.514;2023-05-09T02:28:21;100979.03;;;24.52;14.79
37776;BME280;23614;33.774;130.514;2023-05-09T02:30:48;100985.69;;;24.61;14.60
37776;BME280;23614;33.774;130.514;2023-05-09T02:33:14;100987.75;;;24.67;14.73
37776;BME280;23614;33.774;130.514;2023-05-09T02:35:41;100984.99;;;25.14;13.75
37776;BME280;23614;33.774;130.514;2023-05-09T02:38:06;100983.63;;;25.33;14.35
37776;BME280;23614;33.774;130.514;2023-05-09T02:40:30;100984.37;;;25.11;13.30
37776;BME280;23614;33.774;130.514;2023-05-09T02:42:57;100979.49;;;25.37;13.82
37776;BME280;23614;33.774;130.514;2023-05-09T02:45:22;100976.95;;;25.24;18.42
37776;BME280;23614;33.774;130.514;2023-05-09T02:47:48;100968.38;;;24.44;19.64
37776;BME280;23614;33.774;130.514;2023-05-09T02:50:14;100964.87;;;24.70;20.55
37776;BME280;23614;33.774;130.514;2023-05-09T02:52:40;100958.76;;;25.30;20.05
37776;BME280;23614;33.774;130.514;2023-05-09T02:55:07;100957.49;;;24.64;21.04
37776;BME280;23614;33.774;130.514;2023-05-09T02:57:32;100957.19;;;24.94;21.25
37776;BME280;23614;33.774;130.514;2023-05-09T02:59:58;100964.87;;;24.75;21.88
37776;BME280;23614;33.774;130.514;2023-05-09T03:02:24;100967.46;;;24.40;21.29
37776;BME280;23614;33.774;130.514;2023-05-09T03:04:50;100970.58;;;23.62;22.75
37776;BME280;23614;33.774;130.514;2023-05-09T03:07:16;100973.85;;;24.43;22.88
37776;BME280;23614;33.774;130.514;2023-05-09T03:09:42;100971.42;;;23.72;23.69
37776;BME280;23614;33.774;130.514;2023-05-09T03:12:08;100970.13;;;23.99;23.86
37776;BME280;23614;33.774;130.514;2023-05-09T03:14:34;100970.66;;;23.40;24.12
37776;BME280;23614;33.774;130.514;2023-05-09T03:17:00;100977.19;;;23.57;24.53
37776;BME280;23614;33.774;130.514;2023-05-09T03:19:26;100973.22;;;23.64;24.24
37776;BME280;23614;33.774;130.514;2023-05-09T03:21:52;100968.44;;;23.49;24.20
37776;BME280;23614;33.774;130.514;2023-05-09T03:24:18;100964.44;;;22.99;23.60
37776;BME280;23614;33.774;130.514;2023-05-09T03:26:45;100964.30;;;23.53;24.09
37776;BME280;23614;33.774;130.514;2023-05-09T03:29:10;100959.50;;;23.76;24.10
37776;BME280;23614;33.774;130.514;2023-05-09T03:31:36;100960.32;;;23.78;23.60
37776;BME280;23614;33.774;130.514;2023-05-09T03:34:02;100952.92;;;23.74;21.89
37776;BME280;23614;33.774;130.514;2023-05-09T03:36:28;100952.87;;;23.59;23.37
37776;BME280;23614;33.774;130.514;2023-05-09T03:38:54;100948.19;;;23.59;23.06
37776;BME280;23614;33.774;130.514;2023-05-09T03:41:21;100943.08;;;23.51;22.72
37776;BME280;23614;33.774;130.514;2023-05-09T03:43:46;100940.65;;;23.78;22.03
37776;BME280;23614;33.774;130.514;2023-05-09T03:46:12;100938.16;;;23.95;22.48
37776;BME280;23614;33.774;130.514;2023-05-09T03:48:38;100932.67;;;24.01;22.42
37776;BME280;23614;33.774;130.514;2023-05-09T03:51:05;100926.69;;;23.71;23.07
37776;BME280;23614;33.774;130.514;2023-05-09T03:53:30;100921.68;;;23.45;23.24
37776;BME280;23614;33.774;130.514;2023-05-09T03:55:56;100914.54;;;22.73;22.33
37776;BME280;23614;33.774;130.514;2023-05-09T03:58:22;100922.48;;;23.20;23.25
37776;BME280;23614;33.774;130.514;2023-05-09T04:00:48;100917.11;;;22.71;22.74
37776;BME280;23614;33.774;130.514;2023-05-09T04:03:14;100913.66;;;22.64;23.98
37776;BME280;23614;33.774;130.514;2023-05-09T04:05:40;100912.69;;;22.98;23.52
37776;BME280;23614;33.774;130.514;2023-05-09T04:08:06;100911.45;;;22.39;23.71
37776;BME280;23614;33.774;130.514;2023-05-09T04:10:32;100906.55;;;22.72;23.33
37776;BME280;23614;33.774;130.514;2023-05-09T04:12:58;100902.76;;;22.51;22.97
37776;BME280;23614;33.774;130.514;2023-05-09T04:15:24;100904.25;;;22.92;22.87
37776;BME280;23614;33.774;130.514;2023-05-09T04:17:50;100903.05;;;22.93;22.65
37776;BME280;23614;33.774;130.514;2023-05-09T04:20:16;100902.09;;;22.56;23.36
37776;BME280;23614;33.774;130.514;2023-05-09T04:22:42;100902.76;;;23.00;22.70
37776;BME280;23614;33.774;130.514;2023-05-09T04:25:08;100898.93;;;23.40;22.32
37776;BME280;23614;33.774;130.514;2023-05-09T04:27:34;100893.12;;;23.47;22.86
37776;BME280;23614;33.774;130.514;2023-05-09T04:30:00;100891.38;;;23.00;22.59
37776;BME280;23614;33.774;130.514;2023-05-09T04:32:26;100888.57;;;23.49;22.34
37776;BME280;23614;33.774;130.514;2023-05-09T04:34:53;100888.13;;;23.65;22.26
37776;BME280;23614;33.774;130.514;2023-05-09T04:37:18;100882.15;;;23.31;22.99
37776;BME280;23614;33.774;130.514;2023-05-09T04:39:44;100879.21;;;23.42;22.29
37776;BME280;23614;33.774;130.514;2023-05-09T04:42:10;100880.97;;;22.98;21.72
37776;BME280;23614;33.774;130.514;2023-05-09T04:44:36;100879.73;;;23.35;20.73
37776;BME280;23614;33.774;130.514;2023-05-09T04:47:02;100875.26;;;23.58;21.11
37776;BME280;23614;33.774;130.514;2023-05-09T04:49:28;100868.66;;;22.57;21.51
37776;BME280;23614;33.774;130.514;2023-05-09T04:51:55;100863.56;;;23.47;21.02
37776;BME280;23614;33.774;130.514;2023-05-09T04:54:20;100860.54;;;23.11;21.16
37776;BME280;23614;33.774;130.514;2023-05-09T04:56:46;100860.30;;;22.91;21.25
37776;BME280;23614;33.774;130.514;2023-05-09T04:59:12;100858.22;;;23.33;21.14
37776;BME280;23614;33.774;130.514;2023-05-09T05:01:38;100862.26;;;22.93;21.75
37776;BME280;23614;33.774;130.514;2023-05-09T05:04:04;100861.09;;;22.65;22.23
37776;BME280;23614;33.774;130.514;2023-05-09T05:06:30;100857.63;;;22.84;22.42
37776;BME280;23614;33.774;130.514;2023-05-09T05:08:56;100861.26;;;23.33;22.07
37776;BME280;23614;33.774;130.514;2023-05-09T05:11:22;100859.09;;;23.23;22.18
37776;BME280;23614;33.774;130.514;2023-05-09T05:13:48;100857.02;;;23.43;22.38
37776;BME280;23614;33.774;130.514;2023-05-09T05:16:14;100859.24;;;22.61;22.89
37776;BME280;23614;33.774;130.514;2023-05-09T05:18:40;100853.70;;;22.74;23.04
37776;BME280;23614;33.774;130.514;2023-05-09T05:21:06;100849.85;;;22.60;22.93
37776;BME280;23614;33.774;130.514;2023-05-09T05:23:32;100847.74;;;22.83;23.14
37776;BME280;23614;33.774;130.514;2023-05-09T05:25:58;100848.06;;;22.66;23.59
37776;BME280;23614;33.774;130.514;2023-05-09T05:28:24;100841.95;;;22.55;23.09
37776;BME280;23614;33.774;130.514;2023-05-09T05:30:50;100840.76;;;22.25;23.76
37776;BME280;23614;33.774;130.514;2023-05-09T05:33:16;100841.55;;;22.66;22.93
37776;BME280;23614;33.774;130.514;2023-05-09T05:35:42;100843.74;;;22.60;22.67
37776;BME280;23614;33.774;130.514;2023-05-09T05:38:08;100837.86;;;22.33;22.57
37776;BME280;23614;33.774;130.514;2023-05-09T05:40:34;100832.91;;;22.88;22.60
37776;BME280;23614;33.774;130.514;2023-05-09T05:43:00;100832.07;;;22.85;21.57
37776;BME280;23614;33.774;130.514;2023-05-09T05:45:26;100832.88;;;23.14;22.41
37776;BME280;23614;33.774;130.514;2023-05-09T05:47:52;100838.75;;;23.14;23.13
37776;BME280;23614;33.774;130.514;2023-05-09T05:50:18;100837.05;;;22.88;22.78
37776;BME280;23614;33.774;130.514;2023-05-09T05:52:44;100834.31;;;23.05;22.15
37776;BME280;23614;33.774;130.514;2023-05-09T05:55:11;100833.17;;;22.47;22.27
37776;BME280;23614;33.774;130.514;2023-05-09T05:57:36;100828.60;;;23.09;21.56
37776;BME280;23614;33.774;130.514;2023-05-09T06:00:02;100826.05;;;22.57;21.99
37776;BME280;23614;33.774;130.514;2023-05-09T06:02:28;100827.65;;;22.78;21.73
37776;BME280;23614;33.774;130.514;2023-05-09T06:04:54;100827.96;;;23.23;21.84
37776;BME280;23614;33.774;130.514;2023-05-09T06:07:20;100826.08;;;23.65;21.13
37776;BME280;23614;33.774;130.514;2023-05-09T06:09:46;100816.98;;;23.68;21.23
37776;BME280;23614;33.774;130.514;2023-05-09T06:12:12;100819.25;;;22.78;19.54
37776;BME280;23614;33.774;130.514;2023-05-09T06:14:38;100816.40;;;22.93;19.57
37776;BME280;23614;33.774;130.514;2023-05-09T06:17:04;100809.36;;;22.76;19.59
37776;BME280;23614;33.774;130.514;2023-05-09T06:19:30;100809.07;;;23.28;19.64
37776;BME280;23614;33.774;130.514;2023-05-09T06:21:56;100800.00;;;23.48;20.07
37776;BME280;23614;33.774;130.514;2023-05-09T06:24:22;100803.09;;;23.40;20.80
37776;BME280;23614;33.774;130.514;2023-05-09T06:26:49;100804.81;;;23.27;21.02
37776;BME280;23614;33.774;130.514;2023-05-09T06:29:14;100804.56;;;23.31;21.47
37776;BME280;23614;33.774;130.514;2023-05-09T06:31:40;100794.02;;;23.97;20.60
37776;BME280;23614;33.774;130.514;2023-05-09T06:34:06;100798.36;;;23.84;21.03
37776;BME280;23614;33.774;130.514;2023-05-09T06:36:32;100793.87;;;23.61;20.14
37776;BME280;23614;33.774;130.514;2023-05-09T06:38:59;100787.31;;;23.96;19.46
37776;BME280;23614;33.774;130.514;2023-05-09T06:41:24;100794.00;;;22.91;19.90
37776;BME280;23614;33.774;130.514;2023-05-09T06:43:50;100790.52;;;22.98;19.89
37776;BME280;23614;33.774;130.514;2023-05-09T06:46:17;100783.50;;;23.22;19.64
37776;BME280;23614;33.774;130.514;2023-05-09T06:48:42;100780.06;;;22.74;20.41
37776;BME280;23614;33.774;130.514;2023-05-09T06:51:08;100777.25;;;22.96;20.95
37776;BME280;23614;33.774;130.514;2023-05-09T06:53:34;100770.63;;;22.39;21.27
37776;BME280;23614;33.774;130.514;2023-05-09T06:56:01;100766.17;;;23.25;21.04
37776;BME280;23614;33.774;130.514;2023-05-09T06:58:27;100763.04;;;23.38;21.31
37776;BME280;23614;33.774;130.514;2023-05-09T07:00:52;100769.02;;;23.07;21.01
37776;BME280;23614;33.774;130.514;2023-05-09T07:03:18;100771.08;;;22.60;21.83
37776;BME280;23614;33.774;130.514;2023-05-09T07:05:44;100764.14;;;23.41;22.06
37776;BME280;23614;33.774;130.514;2023-05-09T07:08:10;100761.15;;;23.44;22.13
37776;BME280;23614;33.774;130.514;2023-05-09T07:10:36;100763.37;;;23.09;22.03
37776;BME280;23614;33.774;130.514;2023-05-09T07:13:02;100761.84;;;23.80;21.47
37776;BME280;23614;33.774;130.514;2023-05-09T07:15:28;100762.07;;;23.66;22.01
37776;BME280;23614;33.774;130.514;2023-05-09T07:17:54;100765.74;;;23.40;22.33
37776;BME280;23614;33.774;130.514;2023-05-09T07:20:20;100764.89;;;23.60;22.01
37776;BME280;23614;33.774;130.514;2023-05-09T07:22:46;100761.14;;;24.07;22.09
37776;BME280;23614;33.774;130.514;2023-05-09T07:25:12;100759.93;;;24.16;21.77
37776;BME280;23614;33.774;130.514;2023-05-09T07:27:38;100757.37;;;24.02;22.21
37776;BME280;23614;33.774;130.514;2023-05-09T07:30:04;100757.67;;;24.10;21.70
37776;BME280;23614;33.774;130.514;2023-05-09T07:32:30;100757.53;;;24.02;21.93
37776;BME280;23614;33.774;130.514;2023-05-09T07:34:57;100758.80;;;24.02;21.89
37776;BME280;23614;33.774;130.514;2023-05-09T07:37:22;100760.19;;;23.87;21.66
37776;BME280;23614;33.774;130.514;2023-05-09T07:39:48;100769.38;;;23.42;22.28
37776;BME280;23614;33.774;130.514;2023-05-09T07:42:14;100771.43;;;23.66;22.06
37776;BME280;23614;33.774;130.514;2023-05-09T07:44:40;100772.43;;;23.67;21.30
37776;BME280;23614;33.774;130.514;2023-05-09T07:47:07;100772.61;;;23.58;21.71
37776;BME280;23614;33.774;130.514;2023-05-09T07:49:32;100776.47;;;23.02;22.65
37776;BME280;23614;33.774;130.514;2023-05-09T07:51:58;100774.91;;;23.26;22.68
37776;BME280;23614;33.774;130.514;2023-05-09T07:54:25;100774.02;;;23.15;22.11
37776;BME280;23614;33.774;130.514;2023-05-09T07:56:50;100766.67;;;23.65;22.49
37776;BME280;23614;33.774;130.514;2023-05-09T07:59:17;100766.86;;;23.12;23.77
37776;BME280;23614;33.774;130.514;2023-05-09T08:01:42;100767.16;;;23.19;23.92
37776;BME280;23614;33.774;130.514;2023-05-09T08:04:08;100771.27;;;22.69;24.31
37776;BME280;23614;33.774;130.514;2023-05-09T08:06:34;100772.69;;;22.69;24.11
37776;BME280;23614;33.774;130.514;2023-05-09T08:09:00;100775.48;;;22.67;24.37
37776;BME280;23614;33.774;130.514;2023-05-09T08:11:26;100779.73;;;22.39;25.35
37776;BME280;23614;33.774;130.514;2023-05-09T08:13:52;100786.27;;;22.47;25.57
37776;BME280;23614;33.774;130.514;2023-05-09T08:16:18;100785.29;;;21.38;27.21
37776;BME280;23614;33.774;130.514;2023-05-09T08:18:44;100785.52;;;22.18;26.75
37776;BME280;23614;33.774;130.514;2023-05-09T08:21:10;100786.47;;;22.36;26.75
37776;BME280;23614;33.774;130.514;2023-05-09T08:23:36;100790.02;;;22.50;26.79
37776;BME280;23614;33.774;130.514;2023-05-09T08:26:02;100786.52;;;22.67;26.39
37776;BME280;23614;33.774;130.514;2023-05-09T08:28:28;100786.07;;;22.80;25.40
37776;BME280;23614;33.774;130.514;2023-05-09T08:30:54;100789.85;;;22.89;25.88
37776;BME280;23614;33.774;130.514;2023-05-09T08:33:20;100794.18;;;22.82;25.71
37776;BME280;23614;33.774;130.514;2023-05-09T08:35:49;100793.72;;;22.58;26.21
37776;BME280;23614;33.774;130.514;2023-05-09T08:38:12;100794.73;;;22.61;26.54
37776;BME280;23614;33.774;130.514;2023-05-09T08:40:39;100802.35;;;22.48;25.97
37776;BME280;23614;33.774;130.514;2023-05-09T08:43:06;100802.25;;;22.64;25.76
37776;BME280;23614;33.774;130.514;2023-05-09T08:45:30;100804.09;;;22.60;26.17
37776;BME280;23614;33.774;130.514;2023-05-09T08:47:56;100804.48;;;22.47;26.51
37776;BME280;23614;33.774;130.514;2023-05-09T08:50:22;100811.93;;;22.67;26.31
37776;BME280;23614;33.774;130.514;2023-05-09T08:52:48;100814.58;;;21.84;28.09
37776;BME280;23614;33.774;130.514;2023-05-09T08:55:14;100817.82;;;22.14;28.02
37776;BME280;23614;33.774;130.514;2023-05-09T08:57:40;100818.15;;;21.93;29.02
37776;BME280;23614;33.774;130.514;2023-05-09T09:00:07;100821.69;;;22.04;29.37
37776;BME280;23614;33.774;130.514;2023-05-09T09:02:33;100826.14;;;21.91;29.89
37776;BME280;23614;33.774;130.514;2023-05-09T09:04:58;100821.87;;;22.30;29.60
37776;BME280;23614;33.774;130.514;2023-05-09T09:07:25;100823.36;;;21.64;30.01
37776;BME280;23614;33.774;130.514;2023-05-09T09:09:50;100828.36;;;22.11;29.47
37776;BME280;23614;33.774;130.514;2023-05-09T09:12:16;100839.24;;;22.22;29.27
37776;BME280;23614;33.774;130.514;2023-05-09T09:14:48;100844.11;;;22.53;28.33
37776;BME280;23614;33.774;130.514;2023-05-09T09:17:08;100840.25;;;22.64;28.77
37776;BME280;23614;33.774;130.514;2023-05-09T09:19:34;100843.99;;;22.77;28.86
37776;BME280;23614;33.774;130.514;2023-05-09T09:22:03;100844.21;;;22.06;29.36
37776;BME280;23614;33.774;130.514;2023-05-09T09:24:26;100850.53;;;22.34;28.90
37776;BME280;23614;33.774;130.514;2023-05-09T09:26:52;100853.53;;;22.46;28.98
37776;BME280;23614;33.774;130.514;2023-05-09T09:29:19;100857.43;;;22.72;28.92
37776;BME280;23614;33.774;130.514;2023-05-09T09:31:46;100860.48;;;22.45;29.64
37776;BME280;23614;33.774;130.514;2023-05-09T09:34:10;100864.90;;;22.56;29.73
37776;BME280;23614;33.774;130.514;2023-05-09T09:36:36;100867.34;;;23.10;29.68
37776;BME280;23614;33.774;130.514;2023-05-09T09:39:03;100870.68;;;22.98;30.11
37776;BME280;23614;33.774;130.514;2023-05-09T09:41:32;100872.40;;;22.57;30.83
37776;BME280;23614;33.774;130.514;2023-05-09T09:43:56;100870.74;;;22.24;31.36
37776;BME280;23614;33.774;130.514;2023-05-09T09:46:20;100873.85;;;22.49;31.10
37776;BME280;23614;33.774;130.514;2023-05-09T09:48:47;100871.43;;;22.22;31.41
37776;BME280;23614;33.774;130.514;2023-05-09T09:51:12;100874.48;;;22.32;31.27
37776;BME280;23614;33.774;130.514;2023-05-09T09:53:42;100874.16;;;22.55;30.82
37776;BME280;23614;33.774;130.514;2023-05-09T09:56:04;100875.19;;;22.47;31.05
37776;BME280;23614;33.774;130.514;2023-05-09T09:58:30;100873.49;;;22.35;31.10
37776;BME280;23614;33.774;130.514;2023-05-09T10:01:12;100873.21;;;22.12;30.93
37776;BME280;23614;33.774;130.514;2023-05-09T10:03:22;100874.43;;;22.36;30.81
37776;BME280;23614;33.774;130.514;2023-05-09T10:05:48;100872.19;;;22.21;30.67
37776;BME280;23614;33.774;130.514;2023-05-09T10:08:14;100866.72;;;22.25;30.88
37776;BME280;23614;33.774;130.514;2023-05-09T10:10:40;100867.39;;;22.46;30.66
37776;BME280;23614;33.774;130.514;2023-05-09T10:13:08;100862.88;;;22.21;30.38
37776;BME280;23614;33.774;130.514;2023-05-09T10:15:32;100857.25;;;22.09;30.53
37776;BME280;23614;33.774;130.514;2023-05-09T10:17:59;100856.56;;;21.97;30.85
37776;BME280;23614;33.774;130.514;2023-05-09T10:20:25;100854.47;;;21.92;31.42
37776;BME280;23614;33.774;130.514;2023-05-09T10:22:52;100852.34;;;21.63;31.78
37776;BME280;23614;33.774;130.514;2023-05-09T10:25:20;100854.55;;;21.71;31.42
37776;BME280;23614;33.774;130.514;2023-05-09T10:27:45;100852.71;;;21.66;30.32
37776;BME280;23614;33.774;130.514;2023-05-09T10:30:12;100854.71;;;21.41;30.28
37776;BME280;23614;33.774;130.514;2023-05-09T10:32:40;100856.86;;;21.46;30.29
37776;BME280;23614;33.774;130.514;2023-05-09T10:35:04;100857.67;;;21.30;30.30
37776;BME280;23614;33.774;130.514;2023-05-09T10:37:26;100860.77;;;21.31;30.33
37776;BME280;23614;33.774;130.514;2023-05-09T10:39:52;100860.19;;;21.34;30.14
37776;BME280;23614;33.774;130.514;2023-05-09T10:42:18;100862.49;;;21.35;30.06
37776;BME280;23614;33.774;130.514;2023-05-09T10:44:44;100863.08;;;21.40;30.00
37776;BME280;23614;33.774;130.514;2023-05-09T10:47:10;100865.98;;;21.24;29.97
37776;BME280;23614;33.774;130.514;2023-05-09T10:49:36;100873.26;;;21.25;29.92
37776;BME280;23614;33.774;130.514;2023-05-09T10:52:02;100874.87;;;21.00;30.11
37776;BME280;23614;33.774;130.514;2023-05-09T10:54:29;100872.58;;;21.00;30.36
37776;BME280;23614;33.774;130.514;2023-05-09T10:56:54;100870.79;;;21.07;31.50
37776;BME280;23614;33.774;130.514;2023-05-09T10:59:38;100873.96;;;20.94;32.18
37776;BME280;23614;33.774;130.514;2023-05-09T11:01:46;100873.75;;;21.15;32.29
37776;BME280;23614;33.774;130.514;2023-05-09T11:04:15;100876.68;;;20.68;32.59
37776;BME280;23614;33.774;130.514;2023-05-09T11:06:44;100878.06;;;20.59;32.56
37776;BME280;23614;33.774;130.514;2023-05-09T11:09:23;100879.51;;;20.60;32.96
37776;BME280;23614;33.774;130.514;2023-05-09T11:11:30;100880.75;;;20.44;33.06
37776;BME280;23614;33.774;130.514;2023-05-09T11:13:58;100883.02;;;20.53;33.08
37776;BME280;23614;33.774;130.514;2023-05-09T11:16:22;100888.21;;;20.71;33.17
37776;BME280;23614;33.774;130.514;2023-05-09T11:18:52;100890.54;;;20.55;33.24
37776;BME280;23614;33.774;130.514;2023-05-09T11:21:14;100892.55;;;20.65;33.42
37776;BME280;23614;33.774;130.514;2023-05-09T11:23:40;100890.85;;;20.59;33.05
37776;BME280;23614;33.774;130.514;2023-05-09T11:26:07;100891.40;;;20.30;33.08
37776;BME280;23614;33.774;130.514;2023-05-09T11:28:34;100892.61;;;20.51;33.56
37776;BME280;23614;33.774;130.514;2023-05-09T11:31:10;100897.38;;;20.50;33.60
37776;BME280;23614;33.774;130.514;2023-05-09T11:33:25;100900.55;;;20.41;33.53
37776;BME280;23614;33.774;130.514;2023-05-09T11:36:15;100904.11;;;20.29;33.46
37776;BME280;23614;33.774;130.514;2023-05-09T11:38:20;100907.22;;;20.31;33.71
37776;BME280;23614;33.774;130.514;2023-05-09T11:40:42;100913.10;;;20.27;33.79
37776;BME280;23614;33.774;130.514;2023-05-09T11:43:08;100920.27;;;20.10;34.03
37776;BME280;23614;33.774;130.514;2023-05-09T11:45:35;100922.30;;;19.97;34.29
37776;BME280;23614;33.774;130.514;2023-05-09T11:48:00;100924.93;;;19.91;34.28
37776;BME280;23614;33.774;130.514;2023-05-09T11:50:26;100928.69;;;19.77;34.11
37776;BME280;23614;33.774;130.514;2023-05-09T11:52:52;100930.36;;;19.71;34.38
37776;BME280;23614;33.774;130.514;2023-05-09T11:55:20;100931.69;;;19.69;34.52
37776;BME280;23614;33.774;130.514;2023-05-09T11:57:45;100933.95;;;19.80;34.55
37776;BME280;23614;33.774;130.514;2023-05-09T12:00:11;100936.20;;;19.64;34.40
37776;BME280;23614;33.774;130.514;2023-05-09T12:02:37;100932.46;;;19.62;34.95
37776;BME280;23614;33.774;130.514;2023-05-09T12:05:10;100939.52;;;19.33;34.06
37776;BME280;23614;33.774;130.514;2023-05-09T12:07:28;100940.57;;;19.11;34.39
37776;BME280;23614;33.774;130.514;2023-05-09T12:09:55;100944.32;;;19.06;34.04
37776;BME280;23614;33.774;130.514;2023-05-09T12:12:20;100949.22;;;19.05;33.75
37776;BME280;23614;33.774;130.514;2023-05-09T12:14:47;100955.93;;;19.22;33.96
37776;BME280;23614;33.774;130.514;2023-05-09T12:17:12;100958.56;;;19.02;34.22
37776;BME280;23614;33.774;130.514;2023-05-09T12:19:38;100960.60;;;19.17;33.37
37776;BME280;23614;33.774;130.514;2023-05-09T12:22:04;100962.18;;;19.00;33.25
37776;BME280;23614;33.774;130.514;2023-05-09T12:24:31;100960.73;;;18.87;33.30